sensor_id;sensor_type;location;lat;lon;timestamp;P1;durP1;ratioP1;P2;durP2;ratioP2
32080;SDS011;18593;51.426;7.030;2023-11-21T00:01:39;18.30;;;8.40;;
32080;SDS011;18593;51.426;7.030;2023-11-21T00:04:09;19.75;;;8.00;;
32080;SDS011;18593;51.426;7.030;2023-11-21T00:06:36;14.75;;;7.55;;
32080;SDS011;18593;51.426;7.030;2023-11-21T00:09:04;19.23;;;8.30;;
32080;SDS011;18593;51.426;7.030;2023-11-21T00:11:33;14.60;;;7.53;;
32080;SDS011;18593;51.426;7.030;2023-11-21T00:14:01;15.25;;;7.80;;
32080;SDS011;18593;51.426;7.030;2023-11-21T00:16:28;14.52;;;7.78;;
32080;SDS011;18593;51.426;7.030;2023-11-21T00:18:56;17.85;;;7.85;;
32080;SDS011;18593;51.426;7.030;2023-11-21T00:21:25;19.48;;;7.93;;
32080;SDS011;18593;51.426;7.030;2023-11-21T00:23:53;15.15;;;7.82;;
32080;SDS011;18593;51.426;7.030;2023-11-21T00:26:20;19.40;;;7.72;;
32080;SDS011;18593;51.426;7.030;2023-11-21T00:28:58;19.65;;;7.60;;
32080;SDS011;18593;51.426;7.030;2023-11-21T00:31:26;16.55;;;7.78;;
32080;SDS011;18593;51.426;7.030;2023-11-21T00:33:56;12.27;;;6.95;;
32080;SDS011;18593;51.426;7.030;2023-11-21T00:36:24;22.08;;;7.95;;
32080;SDS011;18593;51.426;7.030;2023-11-21T00:38:54;13.70;;;7.22;;
32080;SDS011;18593;51.426;7.030;2023-11-21T00:41:22;13.80;;;7.55;;
32080;SDS011;18593;51.426;7.030;2023-11-21T00:43:50;13.90;;;7.35;;
32080;SDS011;18593;51.426;7.030;2023-11-21T00:46:18;16.08;;;7.15;;
32080;SDS011;18593;51.426;7.030;2023-11-21T00:48:45;15.73;;;7.88;;
32080;SDS011;18593;51.426;7.030;2023-11-21T00:51:15;19.52;;;7.40;;
32080;SDS011;18593;51.426;7.030;2023-11-21T00:53:44;13.85;;;6.78;;
32080;SDS011;18593;51.426;7.030;2023-11-21T00:56:12;14.70;;;6.38;;
32080;SDS011;18593;51.426;7.030;2023-11-21T00:58:41;13.43;;;7.25;;
32080;SDS011;18593;51.426;7.030;2023-11-21T01:01:09;15.38;;;7.75;;
32080;SDS011;18593;51.426;7.030;2023-11-21T01:03:37;13.23;;;6.78;;
32080;SDS011;18593;51.426;7.030;2023-11-21T01:06:04;20.52;;;7.68;;
32080;SDS011;18593;51.426;7.030;2023-11-21T01:08:34;14.73;;;7.90;;
32080;SDS011;18593;51.426;7.030;2023-11-21T01:11:03;14.20;;;7.57;;
32080;SDS011;18593;51.426;7.030;2023-11-21T01:16:01;17.60;;;7.15;;
32080;SDS011;18593;51.426;7.030;2023-11-21T01:18:29;16.88;;;7.80;;
32080;SDS011;18593;51.426;7.030;2023-11-21T01:20:56;18.73;;;8.25;;
32080;SDS011;18593;51.426;7.030;2023-11-21T01:23:24;15.88;;;8.00;;
32080;SDS011;18593;51.426;7.030;2023-11-21T01:25:52;14.13;;;7.95;;
32080;SDS011;18593;51.426;7.030;2023-11-21T01:28:21;19.38;;;9.27;;
32080;SDS011;18593;51.426;7.030;2023-11-21T01:30:48;16.58;;;8.00;;
32080;SDS011;18593;51.426;7.030;2023-11-21T01:33:16;17.83;;;8.95;;
32080;SDS011;18593;51.426;7.030;2023-11-21T01:35:43;16.17;;;7.90;;
32080;SDS011;18593;51.426;7.030;2023-11-21T01:38:11;20.65;;;8.05;;
32080;SDS011;18593;51.426;7.030;2023-11-21T01:40:39;19.58;;;8.50;;
32080;SDS011;18593;51.426;7.030;2023-11-21T01:43:07;14.35;;;8.40;;
32080;SDS011;18593;51.426;7.030;2023-11-21T01:45:36;17.67;;;8.27;;
32080;SDS011;18593;51.426;7.030;2023-11-21T01:48:04;19.25;;;9.27;;
32080;SDS011;18593;51.426;7.030;2023-11-21T01:50:32;18.80;;;9.73;;
32080;SDS011;18593;51.426;7.030;2023-11-21T01:53:00;18.35;;;8.50;;
32080;SDS011;18593;51.426;7.030;2023-11-21T01:55:29;20.63;;;9.05;;
32080;SDS011;18593;51.426;7.030;2023-11-21T01:57:57;18.80;;;9.45;;
32080;SDS011;18593;51.426;7.030;2023-11-21T02:00:25;17.02;;;9.05;;
32080;SDS011;18593;51.426;7.030;2023-11-21T02:02:56;23.17;;;8.65;;
32080;SDS011;18593;51.426;7.030;2023-11-21T02:05:25;14.20;;;8.70;;
32080;SDS011;18593;51.426;7.030;2023-11-21T02:07:54;17.45;;;8.70;;
32080;SDS011;18593;51.426;7.030;2023-11-21T02:10:22;16.38;;;8.80;;
32080;SDS011;18593;51.426;7.030;2023-11-21T02:12:49;18.40;;;8.95;;
32080;SDS011;18593;51.426;7.030;2023-11-21T02:15:17;16.90;;;8.82;;
32080;SDS011;18593;51.426;7.030;2023-11-21T02:17:46;17.50;;;8.82;;
32080;SDS011;18593;51.426;7.030;2023-11-21T02:20:18;16.15;;;8.60;;
32080;SDS011;18593;51.426;7.030;2023-11-21T02:22:50;15.30;;;9.13;;
32080;SDS011;18593;51.426;7.030;2023-11-21T02:25:23;18.77;;;9.60;;
32080;SDS011;18593;51.426;7.030;2023-11-21T02:27:50;21.38;;;9.38;;
32080;SDS011;18593;51.426;7.030;2023-11-21T02:30:19;21.52;;;9.68;;
32080;SDS011;18593;51.426;7.030;2023-11-21T02:32:47;17.52;;;9.63;;
32080;SDS011;18593;51.426;7.030;2023-11-21T02:35:15;17.88;;;9.40;;
32080;SDS011;18593;51.426;7.030;2023-11-21T02:37:43;17.20;;;9.65;;
32080;SDS011;18593;51.426;7.030;2023-11-21T02:40:13;19.55;;;9.85;;
32080;SDS011;18593;51.426;7.030;2023-11-21T02:42:43;14.80;;;8.45;;
32080;SDS011;18593;51.426;7.030;2023-11-21T02:45:10;16.77;;;8.98;;
32080;SDS011;18593;51.426;7.030;2023-11-21T02:47:39;20.20;;;9.60;;
32080;SDS011;18593;51.426;7.030;2023-11-21T02:50:07;18.25;;;9.07;;
32080;SDS011;18593;51.426;7.030;2023-11-21T02:52:35;22.92;;;10.18;;
32080;SDS011;18593;51.426;7.030;2023-11-21T02:55:04;18.83;;;9.32;;
32080;SDS011;18593;51.426;7.030;2023-11-21T02:57:34;16.25;;;9.18;;
32080;SDS011;18593;51.426;7.030;2023-11-21T03:00:02;25.65;;;9.77;;
32080;SDS011;18593;51.426;7.030;2023-11-21T03:02:33;20.08;;;9.70;;
32080;SDS011;18593;51.426;7.030;2023-11-21T03:07:34;18.90;;;9.45;;
32080;SDS011;18593;51.426;7.030;2023-11-21T03:10:03;19.30;;;9.55;;
32080;SDS011;18593;51.426;7.030;2023-11-21T03:12:36;19.15;;;9.50;;
32080;SDS011;18593;51.426;7.030;2023-11-21T03:15:05;21.98;;;10.68;;
32080;SDS011;18593;51.426;7.030;2023-11-21T03:17:33;18.77;;;10.48;;
32080;SDS011;18593;51.426;7.030;2023-11-21T03:20:02;16.10;;;9.18;;
32080;SDS011;18593;51.426;7.030;2023-11-21T03:22:36;18.60;;;10.20;;
32080;SDS011;18593;51.426;7.030;2023-11-21T03:25:04;21.45;;;10.38;;
32080;SDS011;18593;51.426;7.030;2023-11-21T03:27:37;20.20;;;9.90;;
32080;SDS011;18593;51.426;7.030;2023-11-21T03:30:07;19.13;;;9.35;;
32080;SDS011;18593;51.426;7.030;2023-11-21T03:32:37;18.17;;;9.88;;
32080;SDS011;18593;51.426;7.030;2023-11-21T03:35:05;18.45;;;9.02;;
32080;SDS011;18593;51.426;7.030;2023-11-21T03:37:33;18.52;;;9.98;;
32080;SDS011;18593;51.426;7.030;2023-11-21T03:40:07;17.73;;;10.05;;
32080;SDS011;18593;51.426;7.030;2023-11-21T03:42:37;19.38;;;10.02;;
32080;SDS011;18593;51.426;7.030;2023-11-21T03:45:05;16.23;;;9.43;;
32080;SDS011;18593;51.426;7.030;2023-11-21T03:47:35;18.53;;;9.83;;
32080;SDS011;18593;51.426;7.030;2023-11-21T03:50:02;17.92;;;9.73;;
32080;SDS011;18593;51.426;7.030;2023-11-21T03:52:31;19.90;;;10.25;;
32080;SDS011;18593;51.426;7.030;2023-11-21T03:54:59;20.80;;;9.65;;
32080;SDS011;18593;51.426;7.030;2023-11-21T03:57:27;20.30;;;9.52;;
32080;SDS011;18593;51.426;7.030;2023-11-21T03:59:57;22.60;;;10.15;;
32080;SDS011;18593;51.426;7.030;2023-11-21T04:02:24;19.75;;;10.48;;
32080;SDS011;18593;51.426;7.030;2023-11-21T04:04:53;17.45;;;9.65;;
32080;SDS011;18593;51.426;7.030;2023-11-21T04:07:21;18.23;;;9.88;;
32080;SDS011;18593;51.426;7.030;2023-11-21T04:09:49;22.90;;;9.90;;
32080;SDS011;18593;51.426;7.030;2023-11-21T04:12:16;19.33;;;9.82;;
32080;SDS011;18593;51.426;7.030;2023-11-21T04:14:44;20.17;;;10.38;;
32080;SDS011;18593;51.426;7.030;2023-11-21T04:17:13;21.10;;;9.35;;
32080;SDS011;18593;51.426;7.030;2023-11-21T04:19:41;17.83;;;9.65;;
32080;SDS011;18593;51.426;7.030;2023-11-21T04:22:08;19.83;;;10.35;;
32080;SDS011;18593;51.426;7.030;2023-11-21T04:24:36;18.38;;;10.05;;
32080;SDS011;18593;51.426;7.030;2023-11-21T04:27:04;21.92;;;9.90;;
32080;SDS011;18593;51.426;7.030;2023-11-21T04:29:32;15.63;;;9.15;;
32080;SDS011;18593;51.426;7.030;2023-11-21T04:32:00;17.67;;;9.20;;
32080;SDS011;18593;51.426;7.030;2023-11-21T04:34:30;20.83;;;9.73;;
32080;SDS011;18593;51.426;7.030;2023-11-21T04:36:57;22.10;;;9.50;;
32080;SDS011;18593;51.426;7.030;2023-11-21T04:39:25;21.70;;;10.10;;
32080;SDS011;18593;51.426;7.030;2023-11-21T04:41:52;19.23;;;10.00;;
32080;SDS011;18593;51.426;7.030;2023-11-21T04:44:20;18.83;;;10.50;;
32080;SDS011;18593;51.426;7.030;2023-11-21T04:46:47;17.50;;;9.68;;
32080;SDS011;18593;51.426;7.030;2023-11-21T04:49:15;22.45;;;10.70;;
32080;SDS011;18593;51.426;7.030;2023-11-21T04:51:44;19.52;;;10.75;;
32080;SDS011;18593;51.426;7.030;2023-11-21T04:54:12;22.30;;;10.70;;
32080;SDS011;18593;51.426;7.030;2023-11-21T04:56:40;21.17;;;9.45;;
32080;SDS011;18593;51.426;7.030;2023-11-21T04:59:07;19.17;;;9.60;;
32080;SDS011;18593;51.426;7.030;2023-11-21T05:01:35;18.05;;;9.45;;
32080;SDS011;18593;51.426;7.030;2023-11-21T05:04:04;19.08;;;9.50;;
32080;SDS011;18593;51.426;7.030;2023-11-21T05:06:34;20.83;;;9.70;;
32080;SDS011;18593;51.426;7.030;2023-11-21T05:09:03;17.83;;;10.18;;
32080;SDS011;18593;51.426;7.030;2023-11-21T05:11:30;20.23;;;10.18;;
32080;SDS011;18593;51.426;7.030;2023-11-21T05:13:58;17.73;;;9.55;;
32080;SDS011;18593;51.426;7.030;2023-11-21T05:16:26;22.48;;;10.15;;
32080;SDS011;18593;51.426;7.030;2023-11-21T05:18:54;26.52;;;10.10;;
32080;SDS011;18593;51.426;7.030;2023-11-21T05:21:26;20.88;;;10.02;;
32080;SDS011;18593;51.426;7.030;2023-11-21T05:23:54;20.33;;;9.90;;
32080;SDS011;18593;51.426;7.030;2023-11-21T05:26:24;18.60;;;9.85;;
32080;SDS011;18593;51.426;7.030;2023-11-21T05:28:51;21.90;;;10.75;;
32080;SDS011;18593;51.426;7.030;2023-11-21T05:31:18;21.88;;;11.43;;
32080;SDS011;18593;51.426;7.030;2023-11-21T05:33:46;24.15;;;11.30;;
32080;SDS011;18593;51.426;7.030;2023-11-21T05:36:14;24.05;;;11.80;;
32080;SDS011;18593;51.426;7.030;2023-11-21T05:38:41;26.08;;;12.20;;
32080;SDS011;18593;51.426;7.030;2023-11-21T05:41:09;22.67;;;11.35;;
32080;SDS011;18593;51.426;7.030;2023-11-21T05:43:40;18.50;;;11.15;;
32080;SDS011;18593;51.426;7.030;2023-11-21T05:46:08;22.83;;;11.55;;
32080;SDS011;18593;51.426;7.030;2023-11-21T05:48:35;24.80;;;12.60;;
32080;SDS011;18593;51.426;7.030;2023-11-21T05:51:03;21.05;;;12.10;;
32080;SDS011;18593;51.426;7.030;2023-11-21T05:53:31;24.42;;;11.23;;
32080;SDS011;18593;51.426;7.030;2023-11-21T05:55:59;21.73;;;11.25;;
32080;SDS011;18593;51.426;7.030;2023-11-21T05:58:27;23.63;;;12.00;;
32080;SDS011;18593;51.426;7.030;2023-11-21T06:00:55;21.73;;;12.00;;
32080;SDS011;18593;51.426;7.030;2023-11-21T06:03:23;22.60;;;11.43;;
32080;SDS011;18593;51.426;7.030;2023-11-21T06:05:50;20.05;;;11.85;;
32080;SDS011;18593;51.426;7.030;2023-11-21T06:08:19;22.05;;;11.63;;
32080;SDS011;18593;51.426;7.030;2023-11-21T06:10:46;24.85;;;12.18;;
32080;SDS011;18593;51.426;7.030;2023-11-21T06:13:14;27.75;;;13.13;;
32080;SDS011;18593;51.426;7.030;2023-11-21T06:15:45;29.75;;;12.55;;
32080;SDS011;18593;51.426;7.030;2023-11-21T06:18:14;28.77;;;13.23;;
32080;SDS011;18593;51.426;7.030;2023-11-21T06:20:44;28.35;;;12.63;;
32080;SDS011;18593;51.426;7.030;2023-11-21T06:23:12;28.83;;;14.35;;
32080;SDS011;18593;51.426;7.030;2023-11-21T06:25:41;29.95;;;14.90;;
32080;SDS011;18593;51.426;7.030;2023-11-21T06:28:10;25.50;;;13.60;;
32080;SDS011;18593;51.426;7.030;2023-11-21T06:30:37;22.60;;;13.57;;
32080;SDS011;18593;51.426;7.030;2023-11-21T06:33:05;26.45;;;12.52;;
32080;SDS011;18593;51.426;7.030;2023-11-21T06:35:34;25.85;;;11.73;;
32080;SDS011;18593;51.426;7.030;2023-11-21T06:38:02;24.95;;;12.95;;
32080;SDS011;18593;51.426;7.030;2023-11-21T06:40:30;25.10;;;12.65;;
32080;SDS011;18593;51.426;7.030;2023-11-21T06:42:59;22.67;;;11.30;;
32080;SDS011;18593;51.426;7.030;2023-11-21T06:45:26;20.17;;;10.93;;
32080;SDS011;18593;51.426;7.030;2023-11-21T06:47:54;24.42;;;12.30;;
32080;SDS011;18593;51.426;7.030;2023-11-21T06:50:21;25.52;;;12.07;;
32080;SDS011;18593;51.426;7.030;2023-11-21T06:52:50;23.10;;;12.73;;
32080;SDS011;18593;51.426;7.030;2023-11-21T06:55:18;26.25;;;12.30;;
32080;SDS011;18593;51.426;7.030;2023-11-21T06:57:46;20.52;;;12.00;;
32080;SDS011;18593;51.426;7.030;2023-11-21T07:00:15;24.55;;;12.75;;
32080;SDS011;18593;51.426;7.030;2023-11-21T07:02:44;27.88;;;12.50;;
32080;SDS011;18593;51.426;7.030;2023-11-21T07:05:12;25.00;;;12.10;;
32080;SDS011;18593;51.426;7.030;2023-11-21T07:07:40;18.65;;;11.63;;
32080;SDS011;18593;51.426;7.030;2023-11-21T07:10:10;28.02;;;11.95;;
32080;SDS011;18593;51.426;7.030;2023-11-21T07:12:38;21.88;;;11.43;;
32080;SDS011;18593;51.426;7.030;2023-11-21T07:15:06;23.17;;;11.70;;
32080;SDS011;18593;51.426;7.030;2023-11-21T07:17:35;24.23;;;11.65;;
32080;SDS011;18593;51.426;7.030;2023-11-21T07:20:04;23.98;;;11.68;;
32080;SDS011;18593;51.426;7.030;2023-11-21T07:22:32;23.05;;;11.70;;
32080;SDS011;18593;51.426;7.030;2023-11-21T07:25:00;22.15;;;11.50;;
32080;SDS011;18593;51.426;7.030;2023-11-21T07:27:29;19.40;;;11.60;;
32080;SDS011;18593;51.426;7.030;2023-11-21T07:29:59;21.70;;;11.30;;
32080;SDS011;18593;51.426;7.030;2023-11-21T07:32:28;21.75;;;11.02;;
32080;SDS011;18593;51.426;7.030;2023-11-21T07:34:56;20.67;;;11.15;;
32080;SDS011;18593;51.426;7.030;2023-11-21T07:37:26;20.52;;;11.75;;
32080;SDS011;18593;51.426;7.030;2023-11-21T07:39:55;23.85;;;12.40;;
32080;SDS011;18593;51.426;7.030;2023-11-21T07:42:23;24.33;;;12.25;;
32080;SDS011;18593;51.426;7.030;2023-11-21T07:44:53;27.30;;;12.88;;
32080;SDS011;18593;51.426;7.030;2023-11-21T07:47:21;28.60;;;14.65;;
32080;SDS011;18593;51.426;7.030;2023-11-21T07:49:53;25.27;;;14.05;;
32080;SDS011;18593;51.426;7.030;2023-11-21T07:52:21;28.98;;;13.57;;
32080;SDS011;18593;51.426;7.030;2023-11-21T07:54:49;36.58;;;13.88;;
32080;SDS011;18593;51.426;7.030;2023-11-21T07:57:16;36.28;;;15.98;;
32080;SDS011;18593;51.426;7.030;2023-11-21T07:59:44;46.97;;;20.13;;
32080;SDS011;18593;51.426;7.030;2023-11-21T08:02:13;53.70;;;23.30;;
32080;SDS011;18593;51.426;7.030;2023-11-21T08:04:41;56.60;;;24.95;;
32080;SDS011;18593;51.426;7.030;2023-11-21T08:07:10;62.63;;;25.45;;
32080;SDS011;18593;51.426;7.030;2023-11-21T08:09:37;55.53;;;24.30;;
32080;SDS011;18593;51.426;7.030;2023-11-21T08:12:05;61.50;;;26.05;;
32080;SDS011;18593;51.426;7.030;2023-11-21T08:14:33;63.63;;;25.83;;
32080;SDS011;18593;51.426;7.030;2023-11-21T08:17:04;54.15;;;23.98;;
32080;SDS011;18593;51.426;7.030;2023-11-21T08:19:37;62.83;;;25.13;;
32080;SDS011;18593;51.426;7.030;2023-11-21T08:22:04;61.70;;;26.25;;
32080;SDS011;18593;51.426;7.030;2023-11-21T08:24:33;60.92;;;25.67;;
32080;SDS011;18593;51.426;7.030;2023-11-21T08:27:01;67.80;;;26.70;;
32080;SDS011;18593;51.426;7.030;2023-11-21T08:29:30;59.20;;;26.25;;
32080;SDS011;18593;51.426;7.030;2023-11-21T08:31:58;62.08;;;26.88;;
32080;SDS011;18593;51.426;7.030;2023-11-21T08:34:30;62.33;;;25.40;;
32080;SDS011;18593;51.426;7.030;2023-11-21T08:37:00;70.53;;;29.42;;
32080;SDS011;18593;51.426;7.030;2023-11-21T08:39:27;62.33;;;27.80;;
32080;SDS011;18593;51.426;7.030;2023-11-21T08:41:55;61.15;;;26.95;;
32080;SDS011;18593;51.426;7.030;2023-11-21T08:44:25;65.22;;;27.20;;
32080;SDS011;18593;51.426;7.030;2023-11-21T08:46:52;63.35;;;28.42;;
32080;SDS011;18593;51.426;7.030;2023-11-21T08:49:20;67.55;;;27.90;;
32080;SDS011;18593;51.426;7.030;2023-11-21T08:51:47;73.80;;;30.40;;
32080;SDS011;18593;51.426;7.030;2023-11-21T08:54:17;74.20;;;31.23;;
32080;SDS011;18593;51.426;7.030;2023-11-21T08:56:45;71.00;;;29.83;;
32080;SDS011;18593;51.426;7.030;2023-11-21T08:59:13;83.45;;;32.65;;
32080;SDS011;18593;51.426;7.030;2023-11-21T09:01:40;80.45;;;32.20;;
32080;SDS011;18593;51.426;7.030;2023-11-21T09:04:08;82.03;;;32.47;;
32080;SDS011;18593;51.426;7.030;2023-11-21T09:06:36;79.10;;;32.58;;
32080;SDS011;18593;51.426;7.030;2023-11-21T09:09:04;88.03;;;33.20;;
32080;SDS011;18593;51.426;7.030;2023-11-21T09:11:35;93.82;;;35.15;;
32080;SDS011;18593;51.426;7.030;2023-11-21T09:14:03;96.80;;;35.42;;
32080;SDS011;18593;51.426;7.030;2023-11-21T09:16:31;87.70;;;33.63;;
32080;SDS011;18593;51.426;7.030;2023-11-21T09:18:58;97.90;;;36.28;;
32080;SDS011;18593;51.426;7.030;2023-11-21T09:21:30;92.75;;;35.47;;
32080;SDS011;18593;51.426;7.030;2023-11-21T09:24:02;97.55;;;36.55;;
32080;SDS011;18593;51.426;7.030;2023-11-21T09:26:36;97.43;;;35.75;;
32080;SDS011;18593;51.426;7.030;2023-11-21T09:29:04;102.40;;;37.38;;
32080;SDS011;18593;51.426;7.030;2023-11-21T09:31:33;101.53;;;37.15;;
32080;SDS011;18593;51.426;7.030;2023-11-21T09:34:01;93.90;;;36.80;;
32080;SDS011;18593;51.426;7.030;2023-11-21T09:36:28;105.18;;;38.03;;
32080;SDS011;18593;51.426;7.030;2023-11-21T09:38:57;107.88;;;37.72;;
32080;SDS011;18593;51.426;7.030;2023-11-21T09:41:29;103.70;;;37.83;;
32080;SDS011;18593;51.426;7.030;2023-11-21T09:44:06;100.90;;;39.17;;
32080;SDS011;18593;51.426;7.030;2023-11-21T09:46:39;109.57;;;37.80;;
32080;SDS011;18593;51.426;7.030;2023-11-21T09:49:09;98.32;;;36.67;;
32080;SDS011;18593;51.426;7.030;2023-11-21T09:51:39;100.18;;;35.92;;
32080;SDS011;18593;51.426;7.030;2023-11-21T09:54:08;104.30;;;37.80;;
32080;SDS011;18593;51.426;7.030;2023-11-21T09:56:38;107.50;;;37.88;;
32080;SDS011;18593;51.426;7.030;2023-11-21T09:59:09;118.60;;;40.03;;
32080;SDS011;18593;51.426;7.030;2023-11-21T10:01:42;114.80;;;38.13;;
32080;SDS011;18593;51.426;7.030;2023-11-21T10:04:10;109.75;;;37.70;;
32080;SDS011;18593;51.426;7.030;2023-11-21T10:06:39;117.38;;;38.75;;
32080;SDS011;18593;51.426;7.030;2023-11-21T10:09:08;115.57;;;39.35;;
32080;SDS011;18593;51.426;7.030;2023-11-21T10:11:39;128.75;;;41.45;;
32080;SDS011;18593;51.426;7.030;2023-11-21T10:14:11;113.15;;;38.55;;
32080;SDS011;18593;51.426;7.030;2023-11-21T10:16:39;130.20;;;42.15;;
32080;SDS011;18593;51.426;7.030;2023-11-21T10:19:12;130.57;;;40.95;;
32080;SDS011;18593;51.426;7.030;2023-11-21T10:21:41;128.07;;;40.80;;
32080;SDS011;18593;51.426;7.030;2023-11-21T10:24:09;124.53;;;39.85;;
32080;SDS011;18593;51.426;7.030;2023-11-21T10:26:37;125.18;;;40.55;;
32080;SDS011;18593;51.426;7.030;2023-11-21T10:29:05;116.13;;;40.42;;
32080;SDS011;18593;51.426;7.030;2023-11-21T10:31:34;118.45;;;39.42;;
32080;SDS011;18593;51.426;7.030;2023-11-21T10:34:12;109.45;;;37.28;;
32080;SDS011;18593;51.426;7.030;2023-11-21T10:36:41;99.70;;;35.92;;
32080;SDS011;18593;51.426;7.030;2023-11-21T10:39:09;108.55;;;35.05;;
32080;SDS011;18593;51.426;7.030;2023-11-21T10:41:43;99.72;;;33.63;;
32080;SDS011;18593;51.426;7.030;2023-11-21T10:44:13;103.00;;;34.67;;
32080;SDS011;18593;51.426;7.030;2023-11-21T10:46:47;102.78;;;34.67;;
32080;SDS011;18593;51.426;7.030;2023-11-21T10:49:19;91.97;;;31.42;;
32080;SDS011;18593;51.426;7.030;2023-11-21T10:51:50;95.18;;;32.65;;
32080;SDS011;18593;51.426;7.030;2023-11-21T10:54:19;90.47;;;32.70;;
32080;SDS011;18593;51.426;7.030;2023-11-21T10:56:48;96.85;;;32.92;;
32080;SDS011;18593;51.426;7.030;2023-11-21T10:59:19;112.60;;;35.28;;
32080;SDS011;18593;51.426;7.030;2023-11-21T11:01:55;101.45;;;33.78;;
32080;SDS011;18593;51.426;7.030;2023-11-21T11:04:27;111.78;;;35.45;;
32080;SDS011;18593;51.426;7.030;2023-11-21T11:06:55;103.65;;;35.80;;
32080;SDS011;18593;51.426;7.030;2023-11-21T11:09:28;103.15;;;34.85;;
32080;SDS011;18593;51.426;7.030;2023-11-21T11:11:58;109.13;;;34.70;;
32080;SDS011;18593;51.426;7.030;2023-11-21T11:14:28;113.78;;;37.25;;
32080;SDS011;18593;51.426;7.030;2023-11-21T11:16:58;113.18;;;36.53;;
32080;SDS011;18593;51.426;7.030;2023-11-21T11:19:27;123.13;;;38.38;;
32080;SDS011;18593;51.426;7.030;2023-11-21T11:22:00;109.70;;;36.33;;
32080;SDS011;18593;51.426;7.030;2023-11-21T11:24:47;118.05;;;38.60;;
32080;SDS011;18593;51.426;7.030;2023-11-21T11:27:32;109.55;;;36.72;;
32080;SDS011;18593;51.426;7.030;2023-11-21T11:30:11;112.18;;;38.03;;
32080;SDS011;18593;51.426;7.030;2023-11-21T11:32:53;121.43;;;39.08;;
32080;SDS011;18593;51.426;7.030;2023-11-21T11:35:39;118.25;;;39.03;;
32080;SDS011;18593;51.426;7.030;2023-11-21T11:38:20;117.20;;;37.88;;
32080;SDS011;18593;51.426;7.030;2023-11-21T11:40:52;108.47;;;36.70;;
32080;SDS011;18593;51.426;7.030;2023-11-21T11:43:24;112.28;;;37.42;;
32080;SDS011;18593;51.426;7.030;2023-11-21T11:45:55;112.05;;;36.65;;
32080;SDS011;18593;51.426;7.030;2023-11-21T11:48:25;111.28;;;37.15;;
32080;SDS011;18593;51.426;7.030;2023-11-21T11:51:02;113.53;;;38.03;;
32080;SDS011;18593;51.426;7.030;2023-11-21T11:53:37;103.63;;;35.90;;
32080;SDS011;18593;51.426;7.030;2023-11-21T11:56:24;95.22;;;36.35;;
32080;SDS011;18593;51.426;7.030;2023-11-21T11:58:54;99.13;;;34.95;;
32080;SDS011;18593;51.426;7.030;2023-11-21T12:01:28;88.28;;;32.30;;
32080;SDS011;18593;51.426;7.030;2023-11-21T12:07:00;86.20;;;34.20;;
32080;SDS011;18593;51.426;7.030;2023-11-21T12:09:30;90.47;;;33.08;;
32080;SDS011;18593;51.426;7.030;2023-11-21T12:11:58;89.28;;;32.63;;
32080;SDS011;18593;51.426;7.030;2023-11-21T12:14:26;87.22;;;32.60;;
32080;SDS011;18593;51.426;7.030;2023-11-21T12:17:33;85.57;;;31.85;;
32080;SDS011;18593;51.426;7.030;2023-11-21T12:20:06;87.50;;;33.40;;
32080;SDS011;18593;51.426;7.030;2023-11-21T12:22:41;86.20;;;34.13;;
32080;SDS011;18593;51.426;7.030;2023-11-21T12:25:10;82.55;;;33.75;;
32080;SDS011;18593;51.426;7.030;2023-11-21T12:27:42;88.53;;;33.63;;
32080;SDS011;18593;51.426;7.030;2023-11-21T12:30:11;80.53;;;33.90;;
32080;SDS011;18593;51.426;7.030;2023-11-21T12:32:41;76.72;;;33.22;;
32080;SDS011;18593;51.426;7.030;2023-11-21T12:35:11;79.35;;;34.22;;
32080;SDS011;18593;51.426;7.030;2023-11-21T12:37:39;82.18;;;35.10;;
32080;SDS011;18593;51.426;7.030;2023-11-21T12:40:09;100.65;;;41.88;;
32080;SDS011;18593;51.426;7.030;2023-11-21T12:42:40;103.03;;;45.22;;
32080;SDS011;18593;51.426;7.030;2023-11-21T12:45:10;102.28;;;43.72;;
32080;SDS011;18593;51.426;7.030;2023-11-21T12:47:46;102.15;;;45.72;;
32080;SDS011;18593;51.426;7.030;2023-11-21T12:50:17;100.20;;;44.75;;
32080;SDS011;18593;51.426;7.030;2023-11-21T12:52:49;99.15;;;42.28;;
32080;SDS011;18593;51.426;7.030;2023-11-21T12:55:22;96.30;;;42.63;;
32080;SDS011;18593;51.426;7.030;2023-11-21T12:57:51;92.97;;;41.72;;
32080;SDS011;18593;51.426;7.030;2023-11-21T13:02:58;84.82;;;39.88;;
32080;SDS011;18593;51.426;7.030;2023-11-21T13:05:28;94.43;;;40.05;;
32080;SDS011;18593;51.426;7.030;2023-11-21T13:07:57;79.88;;;37.40;;
32080;SDS011;18593;51.426;7.030;2023-11-21T13:10:29;73.45;;;34.05;;
32080;SDS011;18593;51.426;7.030;2023-11-21T13:12:59;65.88;;;32.97;;
32080;SDS011;18593;51.426;7.030;2023-11-21T13:15:30;59.10;;;30.73;;
32080;SDS011;18593;51.426;7.030;2023-11-21T13:18:00;53.83;;;28.70;;
32080;SDS011;18593;51.426;7.030;2023-11-21T13:20:29;47.53;;;26.52;;
32080;SDS011;18593;51.426;7.030;2023-11-21T13:23:06;47.53;;;25.83;;
32080;SDS011;18593;51.426;7.030;2023-11-21T13:25:37;47.97;;;25.88;;
32080;SDS011;18593;51.426;7.030;2023-11-21T13:28:06;42.40;;;23.48;;
32080;SDS011;18593;51.426;7.030;2023-11-21T13:30:35;43.40;;;23.88;;
32080;SDS011;18593;51.426;7.030;2023-11-21T13:33:05;41.40;;;23.23;;
32080;SDS011;18593;51.426;7.030;2023-11-21T13:35:37;38.95;;;22.92;;
32080;SDS011;18593;51.426;7.030;2023-11-21T13:38:12;36.03;;;20.80;;
32080;SDS011;18593;51.426;7.030;2023-11-21T13:40:46;38.00;;;21.92;;
32080;SDS011;18593;51.426;7.030;2023-11-21T13:43:20;38.42;;;21.92;;
32080;SDS011;18593;51.426;7.030;2023-11-21T13:45:51;33.17;;;20.10;;
32080;SDS011;18593;51.426;7.030;2023-11-21T13:48:28;33.55;;;20.25;;
32080;SDS011;18593;51.426;7.030;2023-11-21T13:51:08;35.33;;;20.42;;
32080;SDS011;18593;51.426;7.030;2023-11-21T13:53:42;34.03;;;19.20;;
32080;SDS011;18593;51.426;7.030;2023-11-21T13:56:12;33.03;;;18.88;;
32080;SDS011;18593;51.426;7.030;2023-11-21T13:58:43;30.60;;;16.98;;
32080;SDS011;18593;51.426;7.030;2023-11-21T14:01:17;29.92;;;17.77;;
32080;SDS011;18593;51.426;7.030;2023-11-21T14:04:06;30.48;;;18.20;;
32080;SDS011;18593;51.426;7.030;2023-11-21T14:06:47;29.38;;;17.40;;
32080;SDS011;18593;51.426;7.030;2023-11-21T14:09:20;29.25;;;16.95;;
32080;SDS011;18593;51.426;7.030;2023-11-21T14:11:50;30.63;;;17.48;;
32080;SDS011;18593;51.426;7.030;2023-11-21T14:14:19;28.77;;;17.17;;
32080;SDS011;18593;51.426;7.030;2023-11-21T14:16:47;31.08;;;17.83;;
32080;SDS011;18593;51.426;7.030;2023-11-21T14:19:16;32.85;;;18.02;;
32080;SDS011;18593;51.426;7.030;2023-11-21T14:21:45;28.58;;;15.85;;
32080;SDS011;18593;51.426;7.030;2023-11-21T14:24:15;27.42;;;16.23;;
32080;SDS011;18593;51.426;7.030;2023-11-21T14:26:44;29.73;;;15.18;;
32080;SDS011;18593;51.426;7.030;2023-11-21T14:29:13;25.75;;;15.43;;
32080;SDS011;18593;51.426;7.030;2023-11-21T14:31:46;29.42;;;15.95;;
32080;SDS011;18593;51.426;7.030;2023-11-21T14:34:14;26.15;;;14.80;;
32080;SDS011;18593;51.426;7.030;2023-11-21T14:36:42;25.50;;;14.70;;
32080;SDS011;18593;51.426;7.030;2023-11-21T14:39:12;23.67;;;14.35;;
32080;SDS011;18593;51.426;7.030;2023-11-21T14:41:48;27.25;;;14.38;;
32080;SDS011;18593;51.426;7.030;2023-11-21T14:44:16;23.35;;;13.65;;
32080;SDS011;18593;51.426;7.030;2023-11-21T14:46:43;24.50;;;13.75;;
32080;SDS011;18593;51.426;7.030;2023-11-21T14:49:12;25.05;;;13.13;;